createdAt,value
2023-05-06T00:01:16.811Z,36.13
2023-05-06T00:03:45.260Z,28.15
2023-05-06T00:06:11.968Z,34.25
2023-05-06T00:08:39.832Z,37.15
2023-05-06T00:11:06.880Z,35.50
2023-05-06T00:13:33.522Z,39.77
2023-05-06T00:16:00.168Z,34.45
2023-05-06T00:18:26.758Z,29.65
2023-05-06T00:20:54.955Z,28.83
2023-05-06T00:23:21.497Z,31.20
2023-05-06T00:25:48.041Z,30.57
2023-05-06T00:28:14.681Z,34.05
2023-05-06T00:30:41.214Z,31.50
2023-05-06T00:33:07.936Z,28.70
2023-05-06T00:35:34.694Z,47.15
2023-05-06T00:38:09.416Z,42.53
2023-05-06T00:40:36.136Z,34.45
2023-05-06T00:43:02.646Z,34.97
2023-05-06T00:45:29.629Z,31.30
2023-05-06T00:47:57.315Z,30.52
2023-05-06T00:50:24.604Z,30.70
2023-05-06T00:52:51.942Z,30.92
2023-05-06T00:55:20.143Z,32.08
2023-05-06T00:57:47.114Z,33.17
2023-05-06T01:00:14.347Z,31.35
2023-05-06T01:02:46.937Z,36.43
2023-05-06T01:05:17.515Z,29.27
2023-05-06T01:07:50.532Z,31.50
2023-05-06T01:10:24.893Z,31.15
2023-05-06T01:12:58.097Z,30.40
2023-05-06T01:15:32.996Z,32.07
2023-05-06T01:18:03.544Z,28.45
2023-05-06T01:20:30.934Z,28.48
2023-05-06T01:22:57.508Z,27.55
2023-05-06T01:25:25.404Z,27.08
2023-05-06T01:27:52.465Z,42.77
2023-05-06T01:30:20.291Z,44.00
2023-05-06T01:32:57.751Z,73.15
2023-05-06T01:35:32.868Z,54.60
2023-05-06T01:38:09.786Z,105.32
2023-05-06T01:40:40.770Z,67.60
2023-05-06T01:43:08.467Z,46.28
2023-05-06T01:45:37.653Z,26.98
2023-05-06T01:48:05.500Z,27.60
2023-05-06T01:50:33.466Z,23.27
2023-05-06T01:53:01.716Z,23.30
2023-05-06T01:55:28.903Z,25.55
2023-05-06T01:57:56.834Z,26.10
2023-05-06T02:00:23.646Z,24.40
2023-05-06T02:02:50.488Z,22.80
2023-05-06T02:05:17.358Z,23.43
2023-05-06T02:07:43.896Z,23.90
2023-05-06T02:10:10.957Z,22.63
2023-05-06T02:12:37.621Z,23.30
2023-05-06T02:15:06.847Z,20.80
2023-05-06T02:17:34.821Z,20.77
2023-05-06T02:20:01.534Z,22.58
2023-05-06T02:22:28.070Z,25.00
2023-05-06T02:24:54.647Z,21.50
2023-05-06T02:27:21.326Z,19.60
2023-05-06T02:29:47.924Z,23.50
2023-05-06T02:32:16.190Z,20.85
2023-05-06T02:34:42.839Z,18.02
2023-05-06T02:37:09.625Z,22.52
2023-05-06T02:39:36.441Z,19.58
2023-05-06T02:42:03.164Z,18.73
2023-05-06T02:44:29.742Z,20.77
2023-05-06T02:46:56.650Z,22.80
2023-05-06T02:49:24.552Z,19.10
2023-05-06T02:51:51.219Z,22.83
2023-05-06T02:54:17.776Z,18.00
2023-05-06T02:56:44.448Z,19.50
2023-05-06T02:59:11.094Z,20.17
2023-05-06T03:01:37.720Z,21.00
2023-05-06T03:04:04.628Z,18.50
2023-05-06T03:06:33.725Z,19.57
2023-05-06T03:09:00.284Z,18.70
2023-05-06T03:11:26.815Z,18.88
2023-05-06T03:13:53.343Z,18.75
2023-05-06T03:16:19.822Z,18.88
2023-05-06T03:18:46.326Z,18.27
2023-05-06T03:21:13.401Z,19.95
2023-05-06T03:23:41.808Z,20.17
2023-05-06T03:26:08.384Z,17.80
2023-05-06T03:28:38.315Z,20.25
2023-05-06T03:31:05.036Z,20.67
2023-05-06T03:33:31.803Z,20.70
2023-05-06T03:35:58.504Z,21.63
2023-05-06T03:38:25.044Z,24.25
2023-05-06T03:40:53.426Z,20.60
2023-05-06T03:43:20.244Z,20.90
2023-05-06T03:45:46.882Z,21.27
2023-05-06T03:48:13.957Z,20.20
2023-05-06T03:50:40.737Z,19.70
2023-05-06T03:53:07.605Z,24.33
2023-05-06T03:55:34.223Z,24.00
2023-05-06T03:58:02.489Z,22.80
2023-05-06T04:00:29.193Z,24.52
2023-05-06T04:02:55.825Z,23.52
2023-05-06T04:05:23.034Z,18.98
2023-05-06T04:07:49.570Z,20.27
2023-05-06T04:10:16.483Z,19.00
2023-05-06T04:12:43.120Z,17.67
2023-05-06T04:15:12.064Z,21.73
2023-05-06T04:17:38.754Z,19.88
2023-05-06T04:20:06.398Z,17.87
2023-05-06T04:22:33.193Z,16.10
2023-05-06T04:25:00.237Z,17.10
2023-05-06T04:27:26.792Z,16.40
2023-05-06T04:29:53.425Z,20.35
2023-05-06T04:32:21.346Z,17.60
2023-05-06T04:34:48.155Z,16.60
2023-05-06T04:37:14.690Z,17.38
2023-05-06T04:39:41.241Z,16.45
2023-05-06T04:42:07.841Z,16.00
2023-05-06T04:44:34.686Z,12.37
2023-05-06T04:47:01.247Z,13.05
2023-05-06T04:49:29.154Z,13.55
2023-05-06T04:51:55.629Z,13.55
2023-05-06T04:54:22.186Z,13.95
2023-05-06T04:56:49.012Z,11.47
2023-05-06T04:59:15.547Z,11.50
2023-05-06T05:01:42.228Z,11.73
2023-05-06T05:04:08.971Z,9.38
2023-05-06T05:06:36.914Z,11.68
2023-05-06T05:09:03.549Z,10.87
2023-05-06T05:11:30.118Z,10.25
2023-05-06T05:13:58.397Z,10.70
2023-05-06T05:16:26.223Z,11.73
2023-05-06T05:18:52.821Z,14.43
2023-05-06T05:21:19.394Z,11.90
2023-05-06T05:23:47.380Z,9.40
2023-05-06T05:26:14.037Z,11.52
2023-05-06T05:28:40.640Z,9.52
2023-05-06T05:31:08.386Z,10.88
2023-05-06T05:33:36.919Z,9.30
2023-05-06T05:36:04.559Z,7.82
2023-05-06T05:38:31.153Z,9.43
2023-05-06T05:41:07.362Z,9.38
2023-05-06T05:43:33.914Z,11.75
2023-05-06T05:46:00.438Z,9.57
2023-05-06T05:48:27.257Z,10.15
2023-05-06T05:50:53.834Z,8.65
2023-05-06T05:53:20.423Z,8.73
2023-05-06T05:55:46.978Z,9.80
2023-05-06T05:58:14.837Z,10.47
2023-05-06T06:00:41.591Z,8.55
2023-05-06T06:03:08.511Z,8.73
2023-05-06T06:05:35.307Z,8.13
2023-05-06T06:08:03.761Z,11.77
2023-05-06T06:10:30.776Z,9.50
2023-05-06T06:12:57.543Z,9.02
2023-05-06T06:15:25.475Z,9.15
2023-05-06T06:17:53.265Z,8.27
2023-05-06T06:20:20.037Z,9.07
2023-05-06T06:22:46.867Z,8.00
2023-05-06T06:25:13.496Z,8.80
2023-05-06T06:27:40.051Z,8.27
2023-05-06T06:30:08.014Z,10.05
2023-05-06T06:32:36.004Z,9.38
2023-05-06T06:35:02.739Z,7.53
2023-05-06T06:37:29.523Z,7.38
2023-05-06T06:39:56.164Z,8.43
2023-05-06T06:42:22.811Z,8.27
2023-05-06T06:44:49.473Z,6.75
2023-05-06T06:47:16.084Z,9.90
2023-05-06T06:49:44.120Z,5.45
2023-05-06T06:52:10.755Z,7.80
2023-05-06T06:54:37.704Z,6.65
2023-05-06T06:57:04.521Z,7.53
2023-05-06T06:59:32.263Z,6.70
2023-05-06T07:01:58.829Z,7.15
2023-05-06T07:04:25.476Z,4.43
2023-05-06T07:06:53.688Z,6.00
2023-05-06T07:09:20.330Z,5.03
2023-05-06T07:11:46.870Z,4.83
2023-05-06T07:14:13.851Z,6.70
2023-05-06T07:16:40.430Z,5.90
2023-05-06T07:19:07.074Z,5.55
2023-05-06T07:21:33.688Z,4.50
2023-05-06T07:24:01.610Z,4.47
2023-05-06T07:26:28.303Z,6.13
2023-05-06T07:28:54.879Z,4.88
2023-05-06T07:31:21.590Z,5.75
2023-05-06T07:33:48.447Z,6.43
2023-05-06T07:36:15.227Z,7.20
2023-05-06T07:38:41.874Z,4.05
2023-05-06T07:41:09.921Z,5.05
2023-05-06T07:43:36.504Z,4.22
2023-05-06T07:46:03.666Z,4.40
2023-05-06T07:48:30.551Z,7.27
2023-05-06T07:50:58.006Z,5.53
2023-05-06T07:53:24.872Z,4.28
2023-05-06T07:55:54.163Z,4.10
2023-05-06T07:58:22.078Z,5.82
2023-05-06T08:01:38.751Z,5.60
2023-05-06T08:04:05.637Z,4.68
2023-05-06T08:06:32.315Z,3.70
2023-05-06T08:08:58.918Z,3.53
2023-05-06T08:11:25.626Z,3.20
2023-05-06T08:13:53.559Z,3.53
2023-05-06T08:16:20.518Z,2.92
2023-05-06T08:18:47.779Z,2.78
2023-05-06T08:21:14.356Z,4.78
2023-05-06T08:23:40.931Z,3.97
2023-05-06T08:26:07.537Z,4.40
2023-05-06T08:28:34.108Z,4.07
2023-05-06T08:31:02.175Z,5.18
2023-05-06T08:33:29.306Z,3.95
2023-05-06T08:35:56.108Z,2.05
2023-05-06T08:38:22.574Z,3.73
2023-05-06T08:40:49.534Z,2.67
2023-05-06T08:43:20.390Z,4.72
2023-05-06T08:45:47.515Z,3.45
2023-05-06T08:48:15.527Z,2.58
2023-05-06T08:50:43.278Z,2.70
2023-05-06T08:53:11.349Z,2.60
2023-05-06T08:55:40.202Z,3.05
2023-05-06T08:58:07.349Z,3.35
2023-05-06T09:00:34.492Z,3.97
2023-05-06T09:03:01.152Z,2.37
2023-05-06T09:05:29.334Z,3.42
2023-05-06T09:07:55.957Z,1.23
2023-05-06T09:10:22.612Z,1.48
2023-05-06T09:12:49.244Z,2.85
2023-05-06T09:15:15.822Z,2.90
2023-05-06T09:17:42.441Z,1.35
2023-05-06T09:20:12.322Z,2.28
2023-05-06T09:22:41.226Z,2.05
2023-05-06T09:25:08.644Z,4.22
2023-05-06T09:27:35.776Z,1.50
2023-05-06T09:30:04.103Z,1.52
2023-05-06T09:32:31.384Z,2.45
2023-05-06T09:34:58.259Z,2.10
2023-05-06T09:37:25.565Z,2.70
2023-05-06T09:39:56.883Z,2.87
2023-05-06T09:42:25.004Z,2.17
2023-05-06T09:44:53.909Z,1.60
2023-05-06T09:47:21.401Z,1.60
2023-05-06T09:49:48.005Z,1.30
2023-05-06T09:52:14.564Z,3.23
2023-05-06T09:54:41.363Z,1.80
2023-05-06T09:57:09.862Z,3.45
2023-05-06T09:59:36.744Z,2.63
2023-05-06T10:02:05.574Z,2.25
2023-05-06T10:04:35.671Z,4.40
2023-05-06T10:07:03.184Z,4.57
2023-05-06T10:09:30.056Z,4.20
2023-05-06T10:11:58.781Z,2.30
2023-05-06T10:14:26.745Z,1.80
2023-05-06T10:16:54.879Z,2.40
2023-05-06T10:19:25.814Z,1.92
2023-05-06T10:21:57.403Z,3.25
2023-05-06T10:24:29.284Z,2.83
2023-05-06T10:26:56.497Z,7.60
2023-05-06T10:29:26.321Z,2.13
2023-05-06T10:31:55.208Z,3.45
2023-05-06T10:34:23.629Z,3.35
2023-05-06T10:36:53.271Z,3.83
2023-05-06T10:39:20.687Z,3.33
2023-05-06T10:41:47.919Z,2.33
2023-05-06T10:44:14.634Z,2.47
2023-05-06T10:47:06.667Z,3.05
2023-05-06T10:49:33.770Z,3.33
2023-05-06T10:52:10.640Z,4.22
2023-05-06T10:54:48.648Z,1.97
2023-05-06T10:57:15.477Z,2.50
2023-05-06T10:59:45.365Z,2.83
2023-05-06T11:02:13.817Z,2.72
2023-05-06T11:04:40.688Z,2.13
2023-05-06T11:07:08.525Z,4.43
2023-05-06T11:09:54.053Z,2.25
2023-05-06T11:12:21.211Z,2.20
2023-05-06T11:14:47.951Z,3.38
2023-05-06T11:17:32.124Z,2.13
2023-05-06T11:20:21.730Z,3.87
2023-05-06T11:22:48.397Z,6.85
2023-05-06T11:25:31.005Z,3.15
2023-05-06T11:27:57.713Z,4.03
2023-05-06T11:30:24.611Z,2.10
2023-05-06T11:32:55.554Z,4.17
2023-05-06T11:35:22.574Z,4.25
2023-05-06T11:37:51.623Z,2.08
2023-05-06T11:40:18.196Z,2.75
2023-05-06T11:42:44.780Z,2.17
2023-05-06T11:45:11.468Z,2.87
2023-05-06T11:47:43.251Z,2.28
2023-05-06T11:50:11.606Z,1.92
2023-05-06T11:52:38.411Z,2.65
2023-05-06T11:55:08.239Z,4.75
2023-05-06T11:57:34.975Z,2.40
2023-05-06T12:00:01.657Z,2.17
2023-05-06T12:02:28.506Z,4.45
2023-05-06T12:04:55.329Z,3.58
2023-05-06T12:07:25.414Z,2.50
2023-05-06T12:09:52.335Z,2.90
2023-05-06T12:12:21.305Z,3.92
2023-05-06T12:14:50.272Z,4.07
2023-05-06T12:17:17.029Z,2.33
2023-05-06T12:19:43.595Z,3.28
2023-05-06T12:22:17.988Z,4.53
2023-05-06T12:24:46.373Z,3.78
2023-05-06T12:27:12.980Z,3.25
2023-05-06T12:29:39.716Z,4.00
2023-05-06T12:32:10.193Z,2.40
2023-05-06T12:34:37.675Z,3.57
2023-05-06T12:37:05.295Z,3.88
2023-05-06T12:39:34.576Z,3.40
2023-05-06T12:42:02.574Z,3.03
2023-05-06T12:44:30.640Z,3.50
2023-05-06T12:46:57.198Z,4.87
2023-05-06T12:49:23.918Z,1.88
2023-05-06T12:52:05.874Z,3.70
2023-05-06T12:54:32.429Z,3.05
2023-05-06T12:56:59.393Z,3.05
2023-05-06T12:59:27.455Z,1.80
2023-05-06T13:01:54.167Z,2.85
2023-05-06T13:04:21.511Z,1.75
2023-05-06T13:06:49.269Z,4.03
2023-05-06T13:09:15.939Z,1.73
2023-05-06T13:11:42.750Z,3.27
2023-05-06T13:14:09.404Z,2.63
2023-05-06T13:16:37.938Z,2.55
2023-05-06T13:19:04.883Z,2.58
2023-05-06T13:21:31.449Z,4.88
2023-05-06T13:23:58.051Z,4.97
2023-05-06T13:26:24.610Z,2.50
2023-05-06T13:28:51.204Z,5.13
2023-05-06T13:31:17.897Z,2.47
2023-05-06T13:33:46.033Z,4.28
2023-05-06T13:36:12.614Z,3.00
2023-05-06T13:38:39.184Z,3.70
2023-05-06T13:41:07.975Z,3.60
2023-05-06T13:43:34.635Z,2.45
2023-05-06T13:46:01.301Z,4.07
2023-05-06T13:48:28.096Z,3.20
2023-05-06T13:50:56.531Z,3.42
2023-05-06T13:53:23.131Z,3.65
2023-05-06T13:55:49.819Z,1.92
2023-05-06T13:58:16.853Z,2.83
2023-05-06T14:00:43.845Z,3.40
2023-05-06T14:03:13.550Z,3.30
2023-05-06T14:05:40.275Z,2.28
2023-05-06T14:08:08.297Z,2.25
2023-05-06T14:10:35.021Z,3.60
2023-05-06T14:13:06.248Z,3.57
2023-05-06T14:15:33.578Z,2.58
2023-05-06T14:18:00.353Z,4.15
2023-05-06T14:20:27.113Z,1.77
2023-05-06T14:22:53.706Z,1.98
2023-05-06T14:25:21.715Z,2.70
2023-05-06T14:27:48.335Z,3.58
2023-05-06T14:30:15.336Z,3.25
2023-05-06T14:32:42.426Z,2.83
2023-05-06T14:35:10.465Z,2.25
2023-05-06T14:37:37.112Z,2.33
2023-05-06T14:40:04.965Z,2.85
2023-05-06T14:42:32.879Z,5.63
2023-05-06T14:44:59.464Z,1.67
2023-05-06T14:47:26.139Z,1.77
2023-05-06T14:49:52.689Z,4.37
2023-05-06T14:52:19.422Z,2.47
2023-05-06T14:54:46.031Z,2.35
2023-05-06T14:57:12.560Z,2.30
2023-05-06T14:59:40.681Z,5.38
2023-05-06T15:02:08.722Z,3.27
2023-05-06T15:04:35.510Z,2.20
2023-05-06T15:07:02.261Z,2.08
2023-05-06T15:09:29.003Z,2.20
2023-05-06T15:11:55.592Z,7.07
2023-05-06T15:14:22.157Z,2.97
2023-05-06T15:16:50.302Z,1.83
2023-05-06T15:19:16.868Z,8.20
2023-05-06T15:21:43.457Z,4.97
2023-05-06T15:24:11.991Z,2.40
2023-05-06T15:26:38.632Z,2.40
2023-05-06T15:29:05.389Z,3.88
2023-05-06T15:31:32.215Z,3.83
2023-05-06T15:34:00.798Z,2.08
2023-05-06T15:36:27.574Z,4.20
2023-05-06T15:38:59.898Z,2.00
2023-05-06T15:41:28.436Z,1.27
2023-05-06T15:43:56.719Z,1.75
2023-05-06T15:46:23.720Z,3.47
2023-05-06T15:49:01.700Z,1.80
2023-05-06T15:51:38.631Z,1.77
2023-05-06T15:54:06.561Z,2.17
2023-05-06T15:56:39.326Z,1.80
2023-05-06T15:59:08.380Z,4.65
2023-05-06T16:04:10.938Z,1.70
2023-05-06T16:06:39.082Z,2.38
2023-05-06T16:09:05.721Z,2.53
2023-05-06T16:11:32.402Z,2.80
2023-05-06T16:13:59.001Z,2.17
2023-05-06T16:16:25.740Z,4.00
2023-05-06T16:18:52.405Z,1.85
2023-05-06T16:21:19.068Z,3.58
2023-05-06T16:23:47.069Z,2.78
2023-05-06T16:26:13.678Z,2.47
2023-05-06T16:28:40.640Z,3.00
2023-05-06T16:31:07.500Z,3.13
2023-05-06T16:33:34.146Z,4.97
2023-05-06T16:36:00.673Z,1.50
2023-05-06T16:38:27.341Z,2.28
2023-05-06T16:40:55.271Z,3.37
2023-05-06T16:43:21.782Z,2.30
2023-05-06T16:45:48.614Z,1.90
2023-05-06T16:48:15.774Z,2.33
2023-05-06T16:50:42.641Z,1.67
2023-05-06T16:53:09.499Z,2.73
2023-05-06T16:55:36.683Z,1.95
2023-05-06T16:58:04.601Z,2.63
2023-05-06T17:00:31.182Z,2.95
2023-05-06T17:02:58.057Z,3.05
2023-05-06T17:05:24.744Z,4.53
2023-05-06T17:07:51.377Z,2.25
2023-05-06T17:10:18.069Z,1.77
2023-05-06T17:12:44.731Z,1.75
2023-05-06T17:15:13.043Z,1.88
2023-05-06T17:17:39.741Z,5.27
2023-05-06T17:20:07.934Z,1.20
2023-05-06T17:22:34.598Z,3.25
2023-05-06T17:25:01.343Z,2.60
2023-05-06T17:27:27.987Z,2.05
2023-05-06T17:29:54.598Z,2.10
2023-05-06T17:32:22.610Z,2.60
2023-05-06T17:34:49.281Z,3.67
2023-05-06T17:37:16.040Z,3.45
2023-05-06T17:39:42.616Z,3.22
2023-05-06T17:42:09.468Z,2.00
2023-05-06T17:44:36.237Z,1.40
2023-05-06T17:47:02.827Z,1.50
2023-05-06T17:49:31.026Z,2.08
2023-05-06T17:51:59.287Z,1.40
2023-05-06T17:54:26.812Z,2.93
2023-05-06T17:56:53.413Z,1.60
2023-05-06T17:59:20.243Z,2.10
2023-05-06T18:01:47.703Z,2.28
2023-05-06T18:04:14.497Z,1.95
2023-05-06T18:06:43.063Z,4.67
2023-05-06T18:09:09.628Z,3.80
2023-05-06T18:11:36.918Z,1.95
2023-05-06T18:14:03.898Z,2.85
2023-05-06T18:16:30.637Z,1.70
2023-05-06T18:18:57.270Z,2.47
2023-05-06T18:21:23.842Z,2.05
2023-05-06T18:23:58.616Z,1.95
2023-05-06T18:29:01.858Z,1.58
2023-05-06T18:31:28.473Z,2.33
2023-05-06T18:33:55.199Z,2.58
2023-05-06T18:36:22.252Z,2.00
2023-05-06T18:38:48.824Z,1.77
2023-05-06T18:41:16.822Z,1.73
2023-05-06T18:43:43.455Z,2.10
2023-05-06T18:46:10.081Z,2.60
2023-05-06T18:48:36.749Z,3.53
2023-05-06T18:51:10.871Z,3.05
2023-05-06T18:53:37.488Z,1.67
2023-05-06T18:56:05.194Z,1.40
2023-05-06T18:58:34.461Z,2.47
2023-05-06T19:01:01.326Z,1.48
2023-05-06T19:03:27.900Z,1.77
2023-05-06T19:05:54.484Z,2.55
2023-05-06T19:08:21.368Z,2.43
2023-05-06T19:10:47.932Z,1.60
2023-05-06T19:13:14.563Z,1.77
2023-05-06T19:15:42.951Z,2.10
2023-05-06T19:18:10.894Z,1.75
2023-05-06T19:20:38.332Z,2.53
2023-05-06T19:23:05.040Z,2.90
2023-05-06T19:25:31.990Z,4.07
2023-05-06T19:27:58.767Z,2.40
2023-05-06T19:30:25.877Z,2.90
2023-05-06T19:32:54.862Z,4.30
2023-05-06T19:35:22.321Z,3.03
2023-05-06T19:37:51.387Z,3.45
2023-05-06T19:40:18.211Z,6.15
2023-05-06T19:42:45.024Z,2.75
2023-05-06T19:45:16.586Z,4.00
2023-05-06T19:47:44.905Z,3.47
2023-05-06T19:50:14.214Z,3.22
2023-05-06T19:52:42.672Z,2.88
2023-05-06T19:55:10.095Z,4.43
2023-05-06T19:57:36.838Z,3.30
2023-05-06T20:03:05.769Z,5.82
2023-05-06T20:05:33.833Z,2.38
2023-05-06T20:08:03.244Z,3.47
2023-05-06T20:10:30.094Z,1.83
2023-05-06T20:12:57.785Z,2.83
2023-05-06T20:15:24.808Z,3.30
2023-05-06T20:17:51.434Z,3.20
2023-05-06T20:20:18.052Z,2.85
2023-05-06T20:22:46.211Z,2.20
2023-05-06T20:25:14.807Z,3.47
2023-05-06T20:27:41.614Z,5.43
2023-05-06T20:30:09.133Z,2.67
2023-05-06T20:32:36.219Z,3.65
2023-05-06T20:35:03.017Z,4.07
2023-05-06T20:37:29.617Z,2.75
2023-05-06T20:39:58.000Z,3.08
2023-05-06T20:42:24.575Z,2.15
2023-05-06T20:44:51.521Z,3.28
2023-05-06T20:47:18.462Z,3.10
2023-05-06T20:49:45.075Z,2.63
2023-05-06T20:52:11.697Z,3.72
2023-05-06T20:54:38.202Z,3.63
2023-05-06T20:57:06.176Z,2.88
2023-05-06T20:59:32.843Z,3.70
2023-05-06T21:01:59.537Z,5.55
2023-05-06T21:04:26.180Z,2.28
2023-05-06T21:06:52.765Z,2.70
2023-05-06T21:09:19.449Z,4.18
2023-05-06T21:11:46.088Z,4.07
2023-05-06T21:14:14.069Z,3.38
2023-05-06T21:16:41.032Z,3.55
2023-05-06T21:19:08.011Z,3.80
2023-05-06T21:21:34.443Z,5.63
2023-05-06T21:24:01.145Z,4.33
2023-05-06T21:26:27.966Z,3.63
2023-05-06T21:28:54.502Z,4.07
2023-05-06T21:31:23.667Z,1.98
2023-05-06T21:33:53.628Z,3.85
2023-05-06T21:36:20.407Z,3.03
2023-05-06T21:38:48.059Z,3.42
2023-05-06T21:41:14.816Z,3.85
2023-05-06T21:43:42.244Z,2.22
2023-05-06T21:46:08.859Z,3.30
2023-05-06T21:48:36.822Z,4.63
2023-05-06T21:51:03.885Z,3.05
2023-05-06T21:53:30.438Z,2.42
2023-05-06T21:55:57.108Z,2.63
2023-05-06T21:58:23.773Z,2.50
2023-05-06T22:00:50.335Z,2.53
2023-05-06T22:03:17.322Z,4.10
2023-05-06T22:05:45.372Z,3.28
2023-05-06T22:08:11.948Z,3.17
2023-05-06T22:10:38.564Z,2.60
2023-05-06T22:13:05.233Z,4.33
2023-05-06T22:15:31.842Z,2.67
2023-05-06T22:17:58.491Z,3.00
2023-05-06T22:20:25.055Z,4.60
2023-05-06T22:22:53.401Z,2.72
2023-05-06T22:25:20.099Z,2.50
2023-05-06T22:27:46.715Z,3.53
2023-05-06T22:30:14.208Z,3.20
2023-05-06T22:32:40.846Z,2.00
2023-05-06T22:35:08.761Z,2.10
2023-05-06T22:37:35.521Z,6.10
2023-05-06T22:40:04.094Z,3.30
2023-05-06T22:42:30.564Z,3.28
2023-05-06T22:44:57.872Z,3.92
2023-05-06T22:47:24.494Z,3.92
2023-05-06T22:49:51.184Z,3.40
2023-05-06T22:52:17.859Z,4.20
2023-05-06T22:54:44.509Z,4.40
2023-05-06T22:57:12.784Z,6.18
2023-05-06T22:59:39.473Z,3.13
2023-05-06T23:02:06.043Z,2.60
2023-05-06T23:04:32.613Z,2.40
2023-05-06T23:06:59.560Z,2.75
2023-05-06T23:09:26.116Z,2.33
2023-05-06T23:11:52.802Z,4.20
2023-05-06T23:14:20.663Z,2.83
2023-05-06T23:16:47.339Z,2.85
2023-05-06T23:19:13.993Z,2.38
2023-05-06T23:21:40.756Z,3.33
2023-05-06T23:24:08.993Z,6.22
2023-05-06T23:26:35.653Z,4.30
2023-05-06T23:29:02.197Z,3.85
2023-05-06T23:31:30.155Z,6.40
2023-05-06T23:33:56.759Z,8.48
2023-05-06T23:36:23.367Z,4.47
2023-05-06T23:38:49.893Z,3.60
2023-05-06T23:41:16.570Z,7.25
2023-05-06T23:43:43.144Z,2.92
2023-05-06T23:46:10.310Z,3.72
2023-05-06T23:48:38.285Z,2.92
2023-05-06T23:51:05.034Z,4.33
2023-05-06T23:53:31.632Z,2.33
2023-05-06T23:55:58.428Z,6.13
2023-05-06T23:58:25.109Z,5.85
